createdAt,value
2019-01-03T00:02:58.433Z,88.28
2019-01-03T00:05:57.108Z,88.32
2019-01-03T00:08:52.882Z,88.46
2019-01-03T00:11:37.247Z,88.30
2019-01-03T00:14:26.019Z,87.64
2019-01-03T00:17:19.305Z,88.01
2019-01-03T00:20:19.034Z,86.90
2019-01-03T00:23:07.725Z,86.70
2019-01-03T00:25:56.203Z,86.52
2019-01-03T00:28:44.454Z,87.75
2019-01-03T00:31:34.536Z,87.79
2019-01-03T00:34:23.108Z,87.51
2019-01-03T00:37:24.645Z,87.84
2019-01-03T00:40:17.543Z,87.81
2019-01-03T00:43:05.900Z,87.24
2019-01-03T00:45:55.922Z,87.23
2019-01-03T00:48:44.317Z,87.28
2019-01-03T00:51:36.950Z,87.35
2019-01-03T00:54:36.014Z,88.32
2019-01-03T00:57:29.945Z,88.09
2019-01-03T01:00:25.788Z,87.68
2019-01-03T01:03:14.453Z,87.17
2019-01-03T01:06:03.271Z,87.81
2019-01-03T01:08:51.796Z,88.31
2019-01-03T01:11:56.793Z,88.56
2019-01-03T01:14:46.882Z,88.87
2019-01-03T01:17:36.892Z,88.54
2019-01-03T01:20:25.280Z,88.62
2019-01-03T01:23:15.141Z,88.48
2019-01-03T01:26:05.602Z,88.85
2019-01-03T01:28:50.934Z,89.25
2019-01-03T01:31:39.389Z,89.50
2019-01-03T01:34:35.444Z,88.43
2019-01-03T01:37:39.057Z,88.01
2019-01-03T01:40:31.903Z,88.48
2019-01-03T01:43:20.692Z,88.10
2019-01-03T01:46:20.272Z,88.69
2019-01-03T01:49:05.880Z,89.34
2019-01-03T01:52:02.858Z,89.41
2019-01-03T01:54:51.720Z,89.12
2019-01-03T01:57:39.921Z,89.13
2019-01-03T02:00:28.098Z,88.94
2019-01-03T02:03:18.113Z,88.83
2019-01-03T02:06:00.548Z,89.81
2019-01-03T02:09:08.824Z,89.80
2019-01-03T02:12:01.690Z,89.86
2019-01-03T02:14:49.165Z,90.88
2019-01-03T02:17:33.160Z,90.40
2019-01-03T02:20:29.269Z,91.31
2019-01-03T02:23:17.830Z,91.22
2019-01-03T02:26:01.257Z,90.55
2019-01-03T02:28:49.533Z,90.74
2019-01-03T02:31:37.717Z,89.38
2019-01-03T02:34:26.269Z,89.24
2019-01-03T02:37:14.683Z,89.79
2019-01-03T02:40:04.470Z,89.29
2019-01-03T02:42:51.561Z,88.87
2019-01-03T02:45:40.957Z,88.10
2019-01-03T02:48:33.751Z,88.73
2019-01-03T02:51:26.565Z,89.28
2019-01-03T02:54:15.933Z,90.10
2019-01-03T02:57:10.594Z,90.64
2019-01-03T03:00:19.305Z,90.51
2019-01-03T03:03:18.727Z,90.00
2019-01-03T03:06:08.507Z,89.89
2019-01-03T03:08:55.604Z,89.98
2019-01-03T03:11:44.436Z,90.02
2019-01-03T03:14:33.520Z,89.13
2019-01-03T03:17:21.787Z,89.57
2019-01-03T03:20:01.091Z,89.62
2019-01-03T03:23:00.044Z,89.29
2019-01-03T03:25:50.561Z,88.73
2019-01-03T03:28:56.180Z,87.86
2019-01-03T03:31:54.935Z,88.20
2019-01-03T03:34:43.663Z,89.24
2019-01-03T03:37:46.124Z,89.70
2019-01-03T03:40:41.914Z,89.75
2019-01-03T03:43:24.554Z,90.46
2019-01-03T03:46:17.724Z,90.14
2019-01-03T03:49:06.246Z,89.49
2019-01-03T03:52:02.177Z,89.27
2019-01-03T03:54:50.353Z,89.36
2019-01-03T03:57:52.569Z,89.93
2019-01-03T04:00:51.703Z,89.91
2019-01-03T04:03:39.892Z,89.49
2019-01-03T04:06:28.442Z,89.97
2019-01-03T04:09:18.472Z,90.49
2019-01-03T04:12:17.447Z,90.50
2019-01-03T04:15:05.873Z,90.02
2019-01-03T04:17:54.311Z,89.56
2019-01-03T04:20:44.229Z,90.63
2019-01-03T04:23:33.951Z,89.76
2019-01-03T04:26:20.785Z,90.32
2019-01-03T04:29:22.809Z,90.54
2019-01-03T04:32:11.394Z,90.64
2019-01-03T04:34:51.069Z,90.43
2019-01-03T04:37:39.302Z,89.27
2019-01-03T04:40:30.272Z,88.52
2019-01-03T04:43:32.335Z,88.61
2019-01-03T04:46:19.357Z,88.18
2019-01-03T04:49:08.085Z,87.91
2019-01-03T04:52:04.053Z,88.46
2019-01-03T04:55:12.071Z,88.97
2019-01-03T04:58:00.753Z,88.69
2019-01-03T05:01:00.055Z,88.88
2019-01-03T05:04:04.708Z,89.87
2019-01-03T05:06:52.973Z,90.22
2019-01-03T05:09:51.625Z,89.93
2019-01-03T05:12:50.743Z,89.80
2019-01-03T05:15:43.697Z,89.32
2019-01-03T05:18:51.209Z,90.59
2019-01-03T05:21:39.275Z,90.05
2019-01-03T05:24:25.928Z,90.61
2019-01-03T05:27:16.014Z,89.57
2019-01-03T05:30:06.031Z,89.22
2019-01-03T05:33:07.838Z,89.35
2019-01-03T05:35:57.857Z,89.73
2019-01-03T05:38:42.808Z,89.01
2019-01-03T05:41:28.956Z,89.04
2019-01-03T05:44:26.058Z,89.42
2019-01-03T05:47:14.455Z,89.26
2019-01-03T05:50:03.285Z,89.06
2019-01-03T05:52:46.620Z,88.40
2019-01-03T05:55:39.382Z,88.63
2019-01-03T05:58:40.884Z,88.61
2019-01-03T06:01:40.185Z,88.87
2019-01-03T06:04:45.125Z,89.19
2019-01-03T06:07:40.661Z,89.85
2019-01-03T06:10:36.208Z,89.65
2019-01-03T06:13:43.983Z,89.53
2019-01-03T06:16:30.970Z,89.98
2019-01-03T06:19:19.184Z,89.72
2019-01-03T06:22:21.095Z,90.37
2019-01-03T06:25:23.035Z,90.39
2019-01-03T06:28:30.767Z,90.73
2019-01-03T06:31:19.188Z,90.51
2019-01-03T06:34:21.048Z,89.81
2019-01-03T06:37:18.777Z,89.67
2019-01-03T06:40:08.559Z,89.61
2019-01-03T06:42:57.082Z,89.88
2019-01-03T06:45:46.005Z,89.96
2019-01-03T06:48:39.959Z,89.93
2019-01-03T06:51:32.866Z,89.92
2019-01-03T06:54:35.972Z,88.29
2019-01-03T06:57:24.212Z,89.22
2019-01-03T07:00:08.343Z,89.52
2019-01-03T07:03:09.878Z,89.62
2019-01-03T07:06:08.489Z,89.78
2019-01-03T07:09:04.672Z,89.66
2019-01-03T07:11:56.569Z,89.57
2019-01-03T07:14:45.044Z,87.76
2019-01-03T07:17:33.662Z,88.24
2019-01-03T07:20:22.540Z,88.11
2019-01-03T07:23:11.292Z,87.50
2019-01-03T07:25:59.476Z,87.05
2019-01-03T07:28:52.585Z,85.97
2019-01-03T07:31:40.982Z,84.78
2019-01-03T07:34:46.225Z,85.44
2019-01-03T07:37:42.210Z,84.71
2019-01-03T07:40:30.536Z,84.13
2019-01-03T07:43:20.807Z,84.25
2019-01-03T07:46:13.964Z,84.03
2019-01-03T07:49:02.902Z,84.18
2019-01-03T07:52:08.093Z,84.02
2019-01-03T07:55:13.214Z,83.41
2019-01-03T07:57:57.521Z,82.80
2019-01-03T08:00:44.769Z,83.25
2019-01-03T08:03:33.477Z,81.91
2019-01-03T08:06:23.056Z,81.29
2019-01-03T08:09:11.833Z,82.93
2019-01-03T08:12:03.414Z,80.56
2019-01-03T08:15:08.722Z,80.37
2019-01-03T08:17:57.636Z,80.23
2019-01-03T08:20:46.409Z,80.32
2019-01-03T08:23:31.024Z,80.62
2019-01-03T08:26:21.402Z,79.86
2019-01-03T08:29:11.501Z,79.69
2019-01-03T08:32:01.761Z,79.33
2019-01-03T08:34:54.880Z,79.11
2019-01-03T08:37:44.732Z,78.04
2019-01-03T08:40:33.180Z,77.33
2019-01-03T08:43:29.434Z,81.23
2019-01-03T08:46:35.720Z,79.33
2019-01-03T08:49:34.456Z,77.57
2019-01-03T08:52:32.631Z,77.90
2019-01-03T08:55:25.815Z,78.74
2019-01-03T08:58:14.403Z,77.17
2019-01-03T09:01:12.509Z,77.56
2019-01-03T09:04:02.554Z,77.31
2019-01-03T09:06:50.989Z,77.37
2019-01-03T09:09:59.045Z,77.60
2019-01-03T09:12:47.621Z,77.37
2019-01-03T09:15:34.106Z,79.71
2019-01-03T09:18:25.737Z,78.87
2019-01-03T09:21:13.805Z,77.83
2019-01-03T09:24:05.052Z,80.46
2019-01-03T09:26:53.404Z,80.44
2019-01-03T09:29:41.694Z,80.15
2019-01-03T09:32:30.374Z,81.31
2019-01-03T09:35:32.481Z,80.71
2019-01-03T09:38:15.997Z,80.25
2019-01-03T09:41:04.529Z,81.23
2019-01-03T09:43:59.605Z,80.11
2019-01-03T09:46:30.609Z,78.98
2019-01-03T09:49:01.406Z,79.73
2019-01-03T09:51:32.491Z,79.42
2019-01-03T09:54:03.358Z,79.13
2019-01-03T09:56:34.205Z,79.37
2019-01-03T09:59:05.313Z,79.11
2019-01-03T10:01:36.221Z,79.20
2019-01-03T10:04:07.373Z,78.86
2019-01-03T10:06:38.364Z,80.01
2019-01-03T10:09:09.151Z,78.88
2019-01-03T10:11:40.212Z,78.74
2019-01-03T10:14:11.189Z,78.12
2019-01-03T10:16:42.087Z,77.41
2019-01-03T10:19:13.194Z,78.64
2019-01-03T10:21:43.973Z,80.15
2019-01-03T10:24:14.757Z,80.31
2019-01-03T10:26:45.778Z,80.50
2019-01-03T10:29:17.531Z,80.37
2019-01-03T10:31:48.369Z,81.14
2019-01-03T10:34:19.214Z,81.39
2019-01-03T10:36:50.228Z,81.48
2019-01-03T10:39:22.165Z,82.03
2019-01-03T10:41:53.902Z,82.50
2019-01-03T10:44:24.704Z,83.04
2019-01-03T10:46:55.793Z,83.56
2019-01-03T10:49:26.785Z,83.17
2019-01-03T10:51:58.032Z,83.77
2019-01-03T10:54:28.887Z,82.37
2019-01-03T10:56:59.885Z,82.40
2019-01-03T10:59:30.669Z,82.74
2019-01-03T11:02:01.433Z,82.47
2019-01-03T11:04:32.721Z,84.12
2019-01-03T11:07:03.752Z,83.16
2019-01-03T11:09:34.551Z,83.12
2019-01-03T11:12:05.489Z,84.00
2019-01-03T11:14:36.646Z,84.28
2019-01-03T11:17:07.427Z,85.12
2019-01-03T11:19:38.703Z,85.12
2019-01-03T11:22:09.782Z,85.50
2019-01-03T11:24:41.297Z,84.98
2019-01-03T11:27:12.070Z,85.97
2019-01-03T11:29:43.110Z,86.75
2019-01-03T11:32:14.363Z,86.20
2019-01-03T11:34:45.164Z,87.12
2019-01-03T11:37:16.466Z,85.81
2019-01-03T11:39:47.499Z,86.61
2019-01-03T11:42:18.598Z,86.84
2019-01-03T11:44:50.212Z,86.43
2019-01-03T11:47:21.223Z,86.80
2019-01-03T11:49:52.521Z,86.92
2019-01-03T11:52:23.395Z,87.96
2019-01-03T11:54:54.185Z,88.03
2019-01-03T11:57:25.413Z,87.73
2019-01-03T11:59:56.432Z,87.21
2019-01-03T12:02:27.283Z,87.34
2019-01-03T12:04:58.079Z,87.72
2019-01-03T12:07:41.458Z,87.26
2019-01-03T12:10:25.540Z,87.59
2019-01-03T12:12:53.580Z,87.93
2019-01-03T12:15:24.852Z,88.63
2019-01-03T12:17:55.627Z,89.28
2019-01-03T12:20:26.753Z,89.41
2019-01-03T12:22:58.009Z,90.17
2019-01-03T12:25:29.075Z,90.97
2019-01-03T12:27:59.845Z,91.99
2019-01-03T12:30:30.629Z,88.91
2019-01-03T12:33:01.408Z,89.50
2019-01-03T12:35:32.205Z,90.64
2019-01-03T12:38:03.146Z,88.75
2019-01-03T12:40:34.001Z,89.49
2019-01-03T12:43:04.924Z,91.42
2019-01-03T12:45:35.722Z,91.66
2019-01-03T12:48:06.850Z,91.74
2019-01-03T12:50:37.634Z,91.13
2019-01-03T12:53:08.640Z,91.72
2019-01-03T12:55:39.429Z,91.60
2019-01-03T12:58:10.452Z,92.64
2019-01-03T13:00:41.309Z,92.37
2019-01-03T13:03:12.401Z,92.92
2019-01-03T13:05:44.474Z,92.92
2019-01-03T13:08:15.495Z,92.32
2019-01-03T13:10:46.286Z,92.09
2019-01-03T13:13:17.085Z,92.39
2019-01-03T13:15:48.147Z,92.71
2019-01-03T13:18:18.928Z,92.62
2019-01-03T13:20:50.017Z,93.69
2019-01-03T13:23:20.801Z,93.81
2019-01-03T13:25:51.607Z,93.93
2019-01-03T13:28:22.851Z,93.77
2019-01-03T13:30:53.639Z,92.63
2019-01-03T13:33:24.838Z,93.65
2019-01-03T13:35:56.100Z,94.42
2019-01-03T13:38:27.106Z,94.31
2019-01-03T13:40:58.130Z,94.33
2019-01-03T13:43:29.142Z,94.17
2019-01-03T13:46:00.194Z,93.85
2019-01-03T13:48:31.222Z,93.19
2019-01-03T13:51:02.015Z,93.10
2019-01-03T13:53:33.276Z,93.21
2019-01-03T13:56:04.070Z,93.76
2019-01-03T13:58:35.097Z,94.09
2019-01-03T14:01:06.108Z,93.80
2019-01-03T14:03:37.746Z,93.46
2019-01-03T14:06:08.765Z,94.00
2019-01-03T14:08:40.029Z,94.22
2019-01-03T14:11:10.823Z,93.30
2019-01-03T14:13:41.825Z,93.70
2019-01-03T14:16:12.623Z,93.59
2019-01-03T14:18:43.410Z,92.79
2019-01-03T14:21:14.442Z,92.94
2019-01-03T14:23:45.715Z,93.35
2019-01-03T14:26:16.736Z,92.95
2019-01-03T14:28:47.523Z,92.52
2019-01-03T14:31:18.644Z,93.06
2019-01-03T14:33:49.646Z,93.49
2019-01-03T14:36:20.689Z,93.10
2019-01-03T14:38:51.710Z,93.07
2019-01-03T14:41:22.570Z,92.89
2019-01-03T14:43:53.599Z,93.23
2019-01-03T14:46:24.641Z,93.30
2019-01-03T14:48:55.664Z,93.83
2019-01-03T14:51:26.483Z,94.60
2019-01-03T14:53:57.267Z,94.34
2019-01-03T14:56:28.062Z,94.50
2019-01-03T14:58:59.070Z,94.34
2019-01-03T15:01:30.421Z,94.31
2019-01-03T15:04:01.741Z,94.76
2019-01-03T15:06:33.003Z,95.09
2019-01-03T15:09:05.550Z,95.31
2019-01-03T15:11:36.706Z,94.80
2019-01-03T15:14:07.483Z,94.34
2019-01-03T15:16:39.469Z,94.69
2019-01-03T15:19:10.270Z,94.99
2019-01-03T15:21:45.447Z,95.27
2019-01-03T15:24:59.802Z,94.79
2019-01-03T15:28:33.619Z,95.22
2019-01-03T15:34:25.208Z,95.95
2019-01-03T15:37:19.700Z,95.79
2019-01-03T15:40:07.641Z,96.27
2019-01-03T15:43:38.025Z,96.25
2019-01-03T15:46:27.705Z,96.12
2019-01-03T15:49:28.665Z,96.33
2019-01-03T15:52:43.399Z,95.75
2019-01-03T15:55:48.913Z,95.78
2019-01-03T15:58:33.714Z,95.87
2019-01-03T16:01:28.938Z,95.89
2019-01-03T16:04:18.726Z,95.43
2019-01-03T16:11:19.716Z,96.04
2019-01-03T16:17:56.403Z,95.96
2019-01-03T16:20:39.532Z,96.38
2019-01-03T16:23:18.346Z,97.19
2019-01-03T16:26:28.810Z,97.23
2019-01-03T16:29:13.779Z,96.82
2019-01-03T16:32:05.380Z,96.21
2019-01-03T16:34:55.245Z,96.34
2019-01-03T16:37:37.667Z,96.22
2019-01-03T16:40:37.673Z,95.98
2019-01-03T16:43:19.922Z,96.21
2019-01-03T16:46:24.449Z,96.68
2019-01-03T16:49:15.511Z,97.00
2019-01-03T16:52:09.037Z,96.49
2019-01-03T16:55:04.026Z,96.34
2019-01-03T16:57:52.822Z,96.65
2019-01-03T17:00:49.179Z,96.40
2019-01-03T17:03:50.797Z,96.53
2019-01-03T17:06:58.750Z,96.27
2019-01-03T17:10:12.753Z,96.63
2019-01-03T17:16:51.039Z,96.42
2019-01-03T17:19:41.637Z,96.33
2019-01-03T17:22:15.805Z,96.35
2019-01-03T17:24:46.809Z,96.52
2019-01-03T17:27:17.949Z,97.14
2019-01-03T17:29:48.769Z,97.21
2019-01-03T17:32:20.631Z,96.81
2019-01-03T17:34:51.639Z,96.82
2019-01-03T17:37:22.519Z,96.87
2019-01-03T17:39:53.604Z,96.71
2019-01-03T17:42:24.513Z,97.01
2019-01-03T17:44:55.346Z,96.58
2019-01-03T17:47:26.794Z,96.70
2019-01-03T17:49:57.826Z,96.97
2019-01-03T17:52:28.619Z,96.90
2019-01-03T17:54:59.959Z,97.37
2019-01-03T17:57:31.148Z,97.58
2019-01-03T18:00:02.484Z,97.47
2019-01-03T18:02:33.352Z,97.51
2019-01-03T18:05:04.204Z,97.42
2019-01-03T18:07:35.474Z,97.87
2019-01-03T18:10:08.363Z,98.01
2019-01-03T18:12:40.274Z,98.18
2019-01-03T18:15:12.186Z,97.86
2019-01-03T18:17:44.209Z,97.97
2019-01-03T18:20:16.955Z,98.01
2019-01-03T18:22:48.222Z,97.99
2019-01-03T18:25:19.319Z,98.11
2019-01-03T18:27:50.374Z,98.23
2019-01-03T18:30:21.477Z,98.25
2019-01-03T18:32:53.353Z,98.31
2019-01-03T18:35:24.350Z,98.15
2019-01-03T18:37:55.375Z,98.08
2019-01-03T18:40:26.153Z,98.28
2019-01-03T18:42:57.248Z,98.33
2019-01-03T18:45:28.048Z,98.65
2019-01-03T18:47:59.413Z,98.66
2019-01-03T18:50:30.426Z,98.58
2019-01-03T18:53:01.221Z,98.30
2019-01-03T18:55:32.301Z,97.66
2019-01-03T18:58:03.446Z,97.90
2019-01-03T19:00:34.514Z,97.75
2019-01-03T19:03:05.462Z,98.06
2019-01-03T19:05:36.276Z,97.89
2019-01-03T19:08:07.348Z,97.41
2019-01-03T19:10:38.468Z,97.79
2019-01-03T19:13:09.729Z,98.20
2019-01-03T19:15:40.756Z,97.84
2019-01-03T19:18:11.678Z,98.02
2019-01-03T19:20:42.482Z,98.17
2019-01-03T19:23:13.509Z,98.22
2019-01-03T19:25:44.420Z,98.07
2019-01-03T19:28:15.473Z,98.05
2019-01-03T19:30:46.643Z,98.08
2019-01-03T19:33:17.650Z,98.15
2019-01-03T19:35:48.655Z,98.23
2019-01-03T19:38:19.746Z,98.57
2019-01-03T19:40:50.831Z,98.46
2019-01-03T19:43:21.705Z,98.38
2019-01-03T19:45:52.482Z,98.57
2019-01-03T19:48:23.510Z,98.81
2019-01-03T19:50:54.363Z,98.65
2019-01-03T19:53:25.177Z,98.38
2019-01-03T19:55:56.210Z,98.07
2019-01-03T19:58:27.006Z,98.20
2019-01-03T20:00:58.233Z,98.26
2019-01-03T20:03:29.074Z,98.03
2019-01-03T20:06:00.086Z,98.08
2019-01-03T20:08:31.105Z,97.97
2019-01-03T20:11:02.306Z,98.34
2019-01-03T20:13:33.343Z,98.33
2019-01-03T20:16:04.174Z,98.32
2019-01-03T20:18:35.097Z,98.70
2019-01-03T20:21:06.033Z,99.02
2019-01-03T20:23:37.315Z,98.86
2019-01-03T20:26:09.288Z,98.77
2019-01-03T20:28:40.318Z,98.76
2019-01-03T20:31:11.173Z,98.79
2019-01-03T20:33:42.353Z,98.90
2019-01-03T20:36:13.138Z,98.64
2019-01-03T20:38:44.102Z,98.58
2019-01-03T20:41:14.981Z,98.73
2019-01-03T20:43:45.992Z,98.76
2019-01-03T20:46:17.083Z,98.81
2019-01-03T20:48:48.111Z,98.31
2019-01-03T20:51:18.890Z,98.53
2019-01-03T20:53:49.692Z,98.05
2019-01-03T20:56:20.549Z,98.35
2019-01-03T20:58:51.407Z,98.53
2019-01-03T21:01:22.961Z,98.29
2019-01-03T21:03:54.123Z,98.37
2019-01-03T21:06:25.197Z,98.59
2019-01-03T21:08:56.005Z,98.32
2019-01-03T21:11:26.858Z,98.53
2019-01-03T21:13:57.707Z,98.79
2019-01-03T21:16:28.573Z,99.10
2019-01-03T21:18:59.422Z,99.89
2019-01-03T21:21:30.523Z,99.97
2019-01-03T21:24:01.333Z,99.60
2019-01-03T21:26:32.424Z,99.40
2019-01-03T21:29:03.290Z,99.28
2019-01-03T21:31:34.294Z,99.05
2019-01-03T21:34:05.239Z,99.01
2019-01-03T21:36:36.099Z,99.08
2019-01-03T21:39:07.520Z,99.17
2019-01-03T21:41:39.636Z,99.34
2019-01-03T21:44:10.910Z,99.37
2019-01-03T21:46:41.919Z,99.46
2019-01-03T21:49:12.790Z,99.26
2019-01-03T21:51:44.086Z,99.31
2019-01-03T21:54:15.122Z,99.43
2019-01-03T21:56:45.897Z,99.59
2019-01-03T21:59:16.930Z,99.43
2019-01-03T22:01:48.012Z,99.58
2019-01-03T22:04:19.039Z,99.74
2019-01-03T22:06:50.126Z,99.98
2019-01-03T22:09:21.184Z,100.00
2019-01-03T22:11:52.275Z,100.00
2019-01-03T22:14:23.074Z,99.93
2019-01-03T22:16:53.866Z,100.00
2019-01-03T22:19:24.714Z,99.94
2019-01-03T22:21:55.525Z,99.58
2019-01-03T22:24:26.548Z,99.72
2019-01-03T22:26:57.414Z,99.45
2019-01-03T22:29:28.220Z,99.97
2019-01-03T22:31:59.013Z,99.95
2019-01-03T22:34:29.818Z,100.00
2019-01-03T22:37:00.896Z,99.96
2019-01-03T22:39:31.890Z,99.94
2019-01-03T22:42:02.903Z,99.62
2019-01-03T22:44:34.462Z,99.40
2019-01-03T22:47:05.564Z,99.81
2019-01-03T22:49:36.361Z,99.90
2019-01-03T22:52:07.998Z,99.56
2019-01-03T22:54:38.803Z,99.55
2019-01-03T22:57:09.850Z,99.39
2019-01-03T22:59:40.889Z,99.30
2019-01-03T23:02:12.075Z,99.22
2019-01-03T23:04:48.921Z,99.26
2019-01-03T23:07:16.621Z,99.43
2019-01-03T23:09:47.450Z,99.65
2019-01-03T23:12:18.303Z,99.69
2019-01-03T23:14:49.634Z,99.96
2019-01-03T23:17:20.597Z,99.96
2019-01-03T23:19:51.398Z,100.00
2019-01-03T23:22:22.184Z,100.00
2019-01-03T23:24:53.028Z,100.00
2019-01-03T23:27:24.047Z,100.00
2019-01-03T23:29:54.932Z,100.00
2019-01-03T23:32:26.215Z,100.00
2019-01-03T23:34:57.017Z,100.00
2019-01-03T23:37:28.135Z,99.93
2019-01-03T23:39:58.955Z,99.76
2019-01-03T23:42:29.779Z,99.74
2019-01-03T23:45:15.837Z,99.84
2019-01-03T23:47:47.241Z,99.92
2019-01-03T23:50:20.689Z,99.77
2019-01-03T23:52:51.467Z,99.89
2019-01-03T23:55:23.152Z,100.00
2019-01-03T23:57:53.993Z,100.00
